Time;durP1;ratioP1;P1;durP2;ratioP2;P2;SDS_P1;SDS_P2;PMS_P1;PMS_P2;Temp;Humidity;BMP_temperature;BMP_pressure;BME280_temperature;BME280_humidity;BME280_pressure;Samples;Min_cycle;Max_cycle;Signal;HPM_P1;HPM_P2
2023/12/21 00:01:40;;;;;;;38.85;7.00;;;8.70;96.40;;;;;;5074780;28;20147;-46
2023/12/21 00:04:07;;;;;;;40.88;7.95;;;8.70;96.40;;;;;;5074773;28;20036;-46
2023/12/21 00:06:34;;;;;;;25.80;7.20;;;8.70;96.30;;;;;;5081764;28;20036;-46
2023/12/21 00:09:01;;;;;;;32.70;6.50;;;8.70;96.30;;;;;;5095439;28;20046;-45
2023/12/21 00:11:28;;;;;;;33.40;6.13;;;8.70;96.30;;;;;;5095305;28;20028;-45
2023/12/21 00:13:55;;;;;;;30.33;5.20;;;8.70;96.30;;;;;;5089029;28;20021;-45
2023/12/21 00:16:22;;;;;;;30.15;5.38;;;8.70;96.30;;;;;;5074986;28;20031;-46
2023/12/21 00:18:49;;;;;;;21.42;6.00;;;8.70;96.30;;;;;;5074923;28;20095;-45
2023/12/21 00:21:16;;;;;;;33.20;5.85;;;8.70;96.30;;;;;;5074768;28;20051;-46
2023/12/21 00:23:43;;;;;;;34.05;5.30;;;8.70;96.30;;;;;;5082559;28;20430;-45
2023/12/21 00:26:10;;;;;;;28.30;7.07;;;8.70;96.30;;;;;;5094460;28;20030;-45
2023/12/21 00:28:37;;;;;;;27.00;5.55;;;8.60;96.30;;;;;;5094613;28;20089;-46
2023/12/21 00:31:02;;;;;;;26.85;6.47;;;8.60;96.40;;;;;;5094436;28;20503;-45
2023/12/21 00:33:29;;;;;;;27.83;5.78;;;8.60;96.50;;;;;;5076546;28;20032;-45
2023/12/21 00:35:56;;;;;;;30.50;6.57;;;8.60;96.60;;;;;;5086581;28;20028;-45
2023/12/21 00:38:23;;;;;;;27.23;5.65;;;8.60;96.70;;;;;;5074404;28;20515;-46
2023/12/21 00:40:50;;;;;;;24.60;5.15;;;8.60;96.70;;;;;;5074239;28;20032;-46
2023/12/21 00:43:17;;;;;;;42.70;6.82;;;8.60;96.70;;;;;;5074275;28;20094;-47
2023/12/21 00:45:43;;;;;;;29.40;5.72;;;8.60;96.80;;;;;;5074593;28;20056;-46
2023/12/21 00:48:09;;;;;;;41.28;5.95;;;8.60;96.80;;;;;;5073990;28;20379;-49
2023/12/21 00:50:36;;;;;;;38.55;7.72;;;8.60;96.80;;;;;;5093736;28;20043;-47
2023/12/21 00:53:03;;;;;;;36.97;9.82;;;8.60;96.90;;;;;;5081610;28;20044;-48
2023/12/21 00:55:29;;;;;;;40.05;8.82;;;8.60;96.90;;;;;;5073943;28;20036;-46
2023/12/21 00:57:56;;;;;;;47.08;6.65;;;8.50;96.90;;;;;;5074427;28;20030;-47
2023/12/21 01:00:22;;;;;;;28.05;5.80;;;8.60;97.00;;;;;;5074001;28;20094;-47
2023/12/21 01:02:50;;;;;;;33.72;6.32;;;8.60;97.00;;;;;;5074078;28;20032;-47
2023/12/21 01:05:20;;;;;;;37.75;8.35;;;8.60;97.00;;;;;;5073765;28;20032;-47
2023/12/21 01:07:49;;;;;;;31.77;6.10;;;8.60;97.00;;;;;;5073641;28;20020;-47
2023/12/21 01:10:16;;;;;;;28.35;6.22;;;8.60;97.00;;;;;;5092964;28;20483;-47
2023/12/21 01:12:46;;;;;;;29.90;5.63;;;8.60;96.90;;;;;;5093919;28;20036;-46
2023/12/21 01:15:14;;;;;;;37.95;5.53;;;8.60;97.00;;;;;;5094054;28;20115;-46
2023/12/21 01:17:45;;;;;;;31.35;5.22;;;8.50;96.90;;;;;;5092432;28;20107;-46
2023/12/21 01:20:15;;;;;;;27.52;6.43;;;8.50;96.90;;;;;;5055603;28;20342;-48
2023/12/21 01:22:46;;;;;;;34.33;5.70;;;8.50;96.90;;;;;;5073147;28;20541;-46
2023/12/21 01:25:16;;;;;;;26.10;6.20;;;8.50;96.90;;;;;;5073505;28;20054;-47
2023/12/21 01:27:46;;;;;;;35.38;5.63;;;8.60;96.90;;;;;;5073381;28;20052;-46
2023/12/21 01:30:14;;;;;;;30.10;6.90;;;8.50;96.90;;;;;;5073404;28;20052;-47
2023/12/21 01:32:43;;;;;;;30.80;5.30;;;8.60;96.90;;;;;;5073394;28;20346;-46
2023/12/21 01:35:12;;;;;;;39.10;7.07;;;8.60;96.90;;;;;;5073746;28;20094;-46
2023/12/21 01:37:43;;;;;;;36.67;7.03;;;8.60;96.90;;;;;;5073357;28;20017;-46
2023/12/21 01:40:14;;;;;;;28.48;4.63;;;8.60;96.90;;;;;;5072875;28;20028;-46
2023/12/21 01:42:41;;;;;;;33.72;6.43;;;8.60;96.90;;;;;;5072800;28;20021;-46
2023/12/21 01:45:07;;;;;;;28.70;5.82;;;8.60;96.90;;;;;;5072397;28;20103;-45
2023/12/21 01:47:37;;;;;;;31.92;5.90;;;8.60;96.90;;;;;;5072623;28;20111;-46
2023/12/21 01:50:08;;;;;;;31.02;6.95;;;8.60;96.90;;;;;;5072596;28;20506;-45
2023/12/21 01:52:39;;;;;;;26.73;6.35;;;8.60;96.90;;;;;;5072843;28;20032;-46
2023/12/21 01:55:09;;;;;;;28.27;6.07;;;8.60;96.90;;;;;;5073099;28;20064;-46
2023/12/21 01:57:38;;;;;;;30.58;5.63;;;8.70;96.90;;;;;;5073151;28;20025;-46
2023/12/21 02:00:05;;;;;;;32.97;5.55;;;8.70;96.80;;;;;;5073088;28;20373;-46
2023/12/21 02:02:34;;;;;;;37.72;6.15;;;8.70;96.80;;;;;;5073478;28;20017;-49
2023/12/21 02:05:02;;;;;;;40.57;6.97;;;8.60;96.80;;;;;;5072764;28;20028;-48
2023/12/21 02:07:32;;;;;;;24.70;5.55;;;8.60;96.80;;;;;;5072905;28;20262;-48
2023/12/21 02:10:02;;;;;;;31.52;6.13;;;8.60;96.90;;;;;;5072746;28;20079;-49
2023/12/21 02:12:31;;;;;;;22.45;5.60;;;8.60;96.90;;;;;;5073005;28;20029;-53
2023/12/21 02:14:59;;;;;;;;;;;8.70;96.90;;;;;;5073438;28;20123;-49
2023/12/21 02:17:32;;;;;;;24.75;6.53;;;8.60;96.90;;;;;;5072819;28;19911;-50
2023/12/21 02:20:04;;;;;;;31.40;6.35;;;8.60;96.90;;;;;;5073332;28;20391;-50
2023/12/21 02:22:37;;;;;;;27.10;5.65;;;8.60;96.90;;;;;;5072692;28;20358;-50
2023/12/21 02:25:06;;;;;;;35.03;7.00;;;8.60;97.00;;;;;;5091689;28;20074;-50
2023/12/21 02:27:35;;;;;;;34.87;6.23;;;8.60;97.00;;;;;;5087262;28;20032;-49
2023/12/21 02:30:04;;;;;;;34.23;6.73;;;8.60;97.00;;;;;;5072887;28;20771;-50
2023/12/21 02:32:32;;;;;;;27.73;5.63;;;8.60;97.00;;;;;;5072816;28;20036;-53
2023/12/21 02:35:01;;;;;;;39.28;8.73;;;8.60;97.00;;;;;;5073065;28;20028;-48
2023/12/21 02:37:28;;;;;;;36.83;9.43;;;8.60;97.10;;;;;;5072631;28;20039;-49
2023/12/21 02:39:57;;;;;;;27.05;6.30;;;8.60;97.10;;;;;;5054792;28;20059;-49
2023/12/21 02:42:27;;;;;;;30.73;8.13;;;8.60;97.10;;;;;;5072275;28;20036;-48
2023/12/21 02:44:59;;;;;;;33.42;6.57;;;8.60;97.10;;;;;;5072600;28;20037;-48
2023/12/21 02:47:28;;;;;;;32.67;6.50;;;8.60;97.10;;;;;;5072676;28;20182;-48
2023/12/21 02:49:58;;;;;;;25.87;5.57;;;8.60;97.10;;;;;;5072356;28;20105;-49
2023/12/21 02:52:27;;;;;;;32.72;5.97;;;8.60;97.20;;;;;;5064556;28;20384;-49
2023/12/21 02:54:57;;;;;;;27.10;5.50;;;8.60;97.10;;;;;;5072710;28;20040;-48
2023/12/21 02:57:25;;;;;;;;;;;8.60;97.10;;;;;;5076680;28;20172;-48
2023/12/21 02:59:56;;;;;;;33.50;6.07;;;8.60;97.20;;;;;;5076222;28;19905;-48
2023/12/21 03:02:26;;;;;;;28.13;6.35;;;8.60;97.20;;;;;;5076241;28;20545;-48
2023/12/21 03:04:55;;;;;;;29.48;5.95;;;8.60;97.20;;;;;;5075973;28;20062;-47
2023/12/21 03:07:24;;;;;;;22.52;7.25;;;8.60;97.20;;;;;;5076607;28;20032;-49
2023/12/21 03:09:52;;;;;;;30.05;7.22;;;8.60;97.20;;;;;;5075882;28;20457;-49
2023/12/21 03:12:22;;;;;;;24.70;6.43;;;8.60;97.20;;;;;;5076156;28;20036;-48
2023/12/21 03:14:51;;;;;;;30.50;6.13;;;8.60;97.20;;;;;;5075569;28;20040;-48
2023/12/21 03:17:21;;;;;;;25.83;7.00;;;8.60;97.20;;;;;;5075844;28;20043;-50
2023/12/21 03:19:50;;;;;;;27.52;7.53;;;8.50;97.20;;;;;;5075861;28;20028;-50
2023/12/21 03:22:19;;;;;;;29.85;6.47;;;8.60;97.20;;;;;;5076081;28;20100;-52
2023/12/21 03:24:48;;;;;;;35.35;6.43;;;8.60;97.20;;;;;;5092183;28;20035;-51
2023/12/21 03:27:18;;;;;;;21.73;7.10;;;8.60;97.20;;;;;;5096003;28;20032;-53
2023/12/21 03:29:50;;;;;;;23.38;5.00;;;8.60;97.20;;;;;;5089839;28;20035;-59
2023/12/21 03:32:18;;;;;;;25.15;5.82;;;8.60;97.20;;;;;;5075666;28;20036;-56
2023/12/21 03:34:46;;;;;;;28.40;4.75;;;8.60;97.20;;;;;;5075590;28;20028;-51
2023/12/21 03:37:14;;;;;;;20.88;6.90;;;8.60;97.20;;;;;;5075412;28;20017;-51
2023/12/21 03:39:46;;;;;;;25.13;4.90;;;8.70;97.20;;;;;;5076142;28;20350;-49
2023/12/21 03:42:15;;;;;;;16.67;4.68;;;8.60;97.20;;;;;;5075200;28;20029;-48
2023/12/21 03:44:46;;;;;;;28.73;5.65;;;8.70;97.20;;;;;;5075480;28;20063;-50
2023/12/21 03:47:15;;;;;;;23.02;5.95;;;8.70;97.20;;;;;;5074371;28;20040;-51
2023/12/21 03:49:42;;;;;;;25.77;5.27;;;8.70;97.20;;;;;;5075399;28;20032;-48
2023/12/21 03:52:09;;;;;;;19.95;5.28;;;8.70;97.20;;;;;;5075368;28;20087;-51
2023/12/21 03:54:35;;;;;;;16.95;4.18;;;8.70;97.20;;;;;;5075709;28;20040;-48
2023/12/21 03:57:02;;;;;;;18.73;5.45;;;8.70;97.20;;;;;;5075317;28;20451;-48
2023/12/21 03:59:28;;;;;;;17.40;4.40;;;8.70;97.20;;;;;;5075221;28;20346;-48
2023/12/21 04:01:56;;;;;;;14.82;3.92;;;8.70;97.20;;;;;;5075246;28;20025;-49
2023/12/21 04:04:23;;;;;;;15.68;4.93;;;8.70;97.30;;;;;;5075377;28;20450;-49
2023/12/21 04:06:50;;;;;;;14.73;5.28;;;8.70;97.20;;;;;;5074490;28;20036;-51
2023/12/21 04:09:16;;;;;;;14.95;4.45;;;8.70;97.20;;;;;;5074885;28;20028;-53
2023/12/21 04:11:41;;;;;;;19.38;6.10;;;8.70;97.20;;;;;;5075252;28;20047;-53
2023/12/21 04:14:08;;;;;;;18.30;4.53;;;8.70;97.20;;;;;;5074791;28;20563;-51
2023/12/21 04:16:34;;;;;;;17.55;4.43;;;8.70;97.20;;;;;;5075195;28;20039;-50
2023/12/21 04:19:01;;;;;;;17.30;5.05;;;8.70;97.20;;;;;;5074650;28;20032;-49
2023/12/21 04:21:27;;;;;;;13.50;4.07;;;8.70;97.20;;;;;;5074653;28;20036;-50
2023/12/21 04:23:53;;;;;;;17.42;4.32;;;8.70;97.30;;;;;;5084398;28;20036;-54
2023/12/21 04:26:23;;;;;;;16.40;4.63;;;8.70;97.30;;;;;;5095113;28;20028;-49
2023/12/21 04:28:50;;;;;;;7.90;3.53;;;8.70;97.30;;;;;;5095009;28;20043;-49
2023/12/21 04:31:23;;;;;;;18.33;4.85;;;8.80;97.30;;;;;;5073081;28;20454;-49
2023/12/21 04:33:51;;;;;;;12.32;4.85;;;8.70;97.30;;;;;;5074456;28;20446;-49
2023/12/21 04:36:19;;;;;;;13.20;4.13;;;8.70;97.30;;;;;;5074384;28;20040;-48
2023/12/21 04:38:46;;;;;;;17.52;5.15;;;8.70;97.30;;;;;;5074319;28;20028;-48
2023/12/21 04:41:13;;;;;;;18.33;4.65;;;8.70;97.30;;;;;;5074245;28;20024;-50
2023/12/21 04:43:41;;;;;;;14.02;4.38;;;8.70;97.30;;;;;;5074187;28;20150;-51
2023/12/21 04:46:08;;;;;;;14.20;4.43;;;8.80;97.30;;;;;;5073984;28;20038;-52
2023/12/21 04:48:35;;;;;;;15.93;4.80;;;8.70;97.30;;;;;;5074043;28;20107;-51
2023/12/21 04:51:03;;;;;;;17.98;4.93;;;8.80;97.30;;;;;;5073860;28;20039;-51
2023/12/21 04:53:30;;;;;;;11.50;4.53;;;8.80;97.30;;;;;;5074153;28;20043;-56
2023/12/21 04:55:56;;;;;;;15.32;5.97;;;8.70;97.30;;;;;;5074496;28;20549;-57
2023/12/21 04:58:23;;;;;;;15.82;5.22;;;8.80;97.30;;;;;;5074056;28;20315;-58
2023/12/21 05:00:50;;;;;;;18.02;5.35;;;8.80;97.30;;;;;;5073417;28;20031;-56
2023/12/21 05:03:19;;;;;;;13.77;5.07;;;8.70;97.30;;;;;;5074449;28;20121;-56
2023/12/21 05:05:47;;;;;;;17.73;5.68;;;8.80;97.40;;;;;;5073802;28;20433;-57
2023/12/21 05:08:14;;;;;;;14.35;4.65;;;8.80;97.40;;;;;;5073960;28;20071;-58
2023/12/21 05:10:41;;;;;;;16.23;4.90;;;8.70;97.30;;;;;;5073534;28;20048;-57
2023/12/21 05:13:08;;;;;;;15.57;5.28;;;8.80;97.40;;;;;;5073738;28;20035;-56
2023/12/21 05:15:34;;;;;;;11.52;4.43;;;8.80;97.40;;;;;;5073749;28;20067;-54
2023/12/21 05:18:01;;;;;;;9.18;4.05;;;8.80;97.40;;;;;;5073731;28;20590;-58
2023/12/21 05:20:27;;;;;;;12.63;3.85;;;8.80;97.40;;;;;;5073615;28;20028;-59
2023/12/21 05:22:53;;;;;;;9.13;4.85;;;8.80;97.40;;;;;;5074833;28;20032;-55
2023/12/21 05:25:19;;;;;;;14.38;4.15;;;8.80;97.40;;;;;;5093751;28;20028;-57
2023/12/21 05:27:46;;;;;;;5.40;2.50;;;8.80;97.40;;;;;;5081708;28;20024;-56
2023/12/21 05:30:16;;;;;;;7.35;2.40;;;8.80;97.50;;;;;;5072952;28;20112;-54
2023/12/21 05:32:45;;;;;;;6.47;2.22;;;8.80;97.50;;;;;;5073484;28;20042;-55
2023/12/21 05:35:13;;;;;;;7.65;2.72;;;8.80;97.50;;;;;;5072742;28;20036;-56
2023/12/21 05:37:40;;;;;;;13.68;3.35;;;8.80;97.50;;;;;;5055556;28;20032;-58
2023/12/21 05:40:10;;;;;;;9.40;3.70;;;8.80;97.50;;;;;;5073077;28;20434;-56
2023/12/21 05:42:39;;;;;;;11.70;3.20;;;8.80;97.50;;;;;;5073103;28;20078;-54
2023/12/21 05:45:07;;;;;;;;;;;8.80;97.50;;;;;;5073993;28;20060;-52
2023/12/21 05:47:36;;;;;;;7.25;5.32;;;8.80;97.50;;;;;;5073144;28;19905;-53
2023/12/21 05:50:04;;;;;;;7.35;2.47;;;8.80;97.50;;;;;;5073751;28;20032;-54
2023/12/21 05:52:31;;;;;;;11.63;4.55;;;8.80;97.50;;;;;;5073110;28;20048;-54
2023/12/21 05:54:58;;;;;;;11.13;2.85;;;8.80;97.50;;;;;;5073903;28;20050;-58
2023/12/21 05:57:26;;;;;;;10.68;3.00;;;8.80;97.50;;;;;;5055163;28;20085;-54
2023/12/21 05:59:53;;;;;;;11.13;2.60;;;8.80;97.50;;;;;;5073279;28;20032;-55
2023/12/21 06:02:20;;;;;;;8.43;2.20;;;8.80;97.50;;;;;;5073232;28;20016;-52
2023/12/21 06:04:46;;;;;;;7.40;2.67;;;8.80;97.50;;;;;;5073439;28;20055;-53
2023/12/21 06:07:13;;;;;;;6.82;2.40;;;8.80;97.50;;;;;;5073339;28;20064;-52
2023/12/21 06:09:38;;;;;;;10.23;3.40;;;8.80;97.50;;;;;;5072661;28;20041;-55
2023/12/21 06:12:10;;;;;;;8.23;2.65;;;8.80;97.40;;;;;;5073744;28;20032;-56
2023/12/21 06:14:37;;;;;;;9.23;2.55;;;8.90;97.40;;;;;;5072958;28;20352;-55
2023/12/21 06:17:09;;;;;;;7.55;1.83;;;8.90;97.40;;;;;;5073332;28;20047;-55
2023/12/21 06:19:42;;;;;;;13.48;2.40;;;8.80;97.40;;;;;;5073538;28;20036;-55
2023/12/21 06:22:08;;;;;;;9.98;2.13;;;8.80;97.40;;;;;;5073028;28;20086;-56
2023/12/21 06:24:35;;;;;;;8.38;2.17;;;8.80;97.40;;;;;;5077871;28;20121;-54
2023/12/21 06:27:02;;;;;;;6.70;2.50;;;8.90;97.40;;;;;;5072908;28;20028;-60
2023/12/21 06:29:32;;;;;;;6.97;2.35;;;8.90;97.30;;;;;;5074088;28;20042;-57
2023/12/21 06:31:59;;;;;;;;;;;8.90;97.30;;;;;;5077200;28;20103;-55
2023/12/21 06:34:27;;;;;;;4.13;1.80;;;8.90;97.30;;;;;;5077132;28;19944;-55
2023/12/21 06:36:53;;;;;;;5.65;1.95;;;8.90;97.30;;;;;;5076768;28;20056;-58
2023/12/21 06:39:21;;;;;;;8.10;1.98;;;8.90;97.30;;;;;;5096333;28;20020;-56
2023/12/21 06:41:47;;;;;;;5.78;2.42;;;8.90;97.30;;;;;;5088325;28;20434;-57
2023/12/21 06:44:14;;;;;;;5.20;2.08;;;8.90;97.30;;;;;;5076449;28;20020;-57
2023/12/21 06:46:41;;;;;;;7.00;1.80;;;8.90;97.30;;;;;;5076482;28;20131;-54
2023/12/21 06:49:13;;;;;;;9.05;1.80;;;8.90;97.30;;;;;;5076195;28;20028;-58
2023/12/21 06:51:41;;;;;;;6.15;2.60;;;8.90;97.30;;;;;;5059360;28;20032;-55
2023/12/21 06:54:08;;;;;;;6.10;1.40;;;8.90;97.30;;;;;;5076466;28;20040;-55
2023/12/21 06:56:35;;;;;;;8.68;2.22;;;8.90;97.20;;;;;;5076520;28;20028;-57
2023/12/21 06:59:02;;;;;;;7.65;3.13;;;8.90;97.20;;;;;;5076312;28;20032;-58
2023/12/21 07:01:29;;;;;;;5.88;2.00;;;8.90;97.20;;;;;;5076264;28;20335;-60
2023/12/21 07:03:57;;;;;;;8.77;2.25;;;8.90;97.20;;;;;;5096351;28;20119;-57
2023/12/21 07:06:28;;;;;;;9.65;2.20;;;8.90;97.20;;;;;;5089246;28;20028;-57
2023/12/21 07:08:55;;;;;;;7.22;2.53;;;8.90;97.20;;;;;;5075710;28;20146;-59
2023/12/21 07:11:23;;;;;;;5.40;2.10;;;8.90;97.20;;;;;;5075883;28;20339;-59
2023/12/21 07:13:50;;;;;;;7.18;2.88;;;8.90;97.20;;;;;;5075619;28;20059;-61
2023/12/21 07:16:15;;;;;;;6.70;2.55;;;9.00;97.20;;;;;;5076182;28;20024;-59
2023/12/21 07:18:41;;;;;;;8.32;2.75;;;9.00;97.10;;;;;;5075662;28;20439;-60
2023/12/21 07:21:08;;;;;;;10.68;3.45;;;9.00;97.20;;;;;;5076382;28;20028;-60
2023/12/21 07:23:35;;;;;;;12.85;3.28;;;9.00;97.10;;;;;;5082216;28;20028;-59
2023/12/21 07:26:03;;;;;;;13.00;2.97;;;9.00;97.10;;;;;;5091606;28;20029;-60
2023/12/21 07:28:31;;;;;;;13.00;3.30;;;9.00;97.10;;;;;;5075702;28;20072;-60
2023/12/21 07:30:59;;;;;;;9.32;4.30;;;9.00;97.00;;;;;;5075801;28;20067;-59
2023/12/21 07:33:26;;;;;;;8.85;2.95;;;9.00;97.00;;;;;;5075856;28;20123;-60
2023/12/21 07:36:07;;;;;;;10.88;3.60;;;9.00;97.00;;;;;;5075318;28;20446;-59
2023/12/21 07:38:36;;;;;;;10.13;2.72;;;8.90;96.90;;;;;;5075778;28;20044;-61
2023/12/21 07:41:03;;;;;;;8.88;2.90;;;9.00;96.90;;;;;;5075384;28;20031;-58
2023/12/21 07:43:30;;;;;;;9.68;3.10;;;8.90;96.80;;;;;;5075535;28;20048;-57
2023/12/21 07:45:57;;;;;;;10.95;2.53;;;9.00;96.80;;;;;;5074968;28;20032;-57
2023/12/21 07:48:24;;;;;;;7.28;3.13;;;9.00;96.80;;;;;;5075251;28;20027;-56
2023/12/21 07:50:50;;;;;;;13.20;3.20;;;9.00;96.80;;;;;;5075097;28;20032;-56
2023/12/21 07:53:17;;;;;;;9.73;2.42;;;9.00;96.70;;;;;;5074955;28;20029;-60
2023/12/21 07:55:44;;;;;;;8.05;2.13;;;9.00;96.70;;;;;;5075496;28;20032;-58
2023/12/21 07:58:11;;;;;;;15.77;3.35;;;9.00;96.70;;;;;;5075036;28;20025;-53
2023/12/21 08:00:38;;;;;;;8.13;2.75;;;9.00;96.70;;;;;;5075297;28;20021;-57
2023/12/21 08:03:05;;;;;;;9.13;3.47;;;9.00;96.70;;;;;;5075032;28;20040;-58
2023/12/21 08:05:32;;;;;;;18.27;5.32;;;9.00;96.70;;;;;;5075273;28;20044;-57
2023/12/21 08:07:59;;;;;;;12.52;2.95;;;9.10;96.70;;;;;;5074364;28;20442;-56
2023/12/21 08:10:28;;;;;;;11.75;2.90;;;9.10;96.70;;;;;;5074450;28;20072;-53
2023/12/21 08:12:55;;;;;;;14.13;4.35;;;9.10;96.70;;;;;;5074407;28;20040;-50
2023/12/21 08:15:22;;;;;;;13.90;3.67;;;9.10;96.70;;;;;;5074820;28;20051;-58
2023/12/21 08:17:55;;;;;;;10.35;2.55;;;9.00;96.70;;;;;;5074369;28;20028;-50
2023/12/21 08:20:24;;;;;;;9.25;2.35;;;9.00;96.70;;;;;;5075020;28;20172;-53
2023/12/21 08:22:51;;;;;;;13.75;3.05;;;9.00;96.70;;;;;;5075556;28;20028;-53
2023/12/21 08:25:18;;;;;;;9.80;2.53;;;9.00;96.80;;;;;;5076914;28;20101;-58
2023/12/21 08:27:47;;;;;;;10.80;2.33;;;9.10;96.80;;;;;;5074862;28;20163;-56
2023/12/21 08:30:20;;;;;;;9.33;2.63;;;9.10;96.90;;;;;;5075095;28;20033;-59
2023/12/21 08:32:54;;;;;;;8.45;1.95;;;9.10;96.90;;;;;;5074444;28;20025;-57
2023/12/21 08:35:21;;;;;;;10.52;2.05;;;9.10;96.90;;;;;;5074382;28;20028;-55
2023/12/21 08:37:51;;;;;;;4.47;1.42;;;9.10;96.90;;;;;;5074280;28;20659;-54
2023/12/21 08:40:21;;;;;;;12.05;2.63;;;9.10;97.00;;;;;;5074188;28;20363;-56
2023/12/21 08:42:48;;;;;;;7.35;1.98;;;9.20;97.00;;;;;;5074291;28;20021;-57
2023/12/21 08:45:15;;;;;;;7.50;2.60;;;9.20;97.00;;;;;;5073946;28;20037;-54
2023/12/21 08:47:42;;;;;;;12.00;3.60;;;9.20;97.00;;;;;;5074206;28;20441;-55
2023/12/21 08:50:11;;;;;;;14.13;2.50;;;9.10;97.00;;;;;;5074129;28;20066;-53
2023/12/21 08:52:38;;;;;;;7.25;2.55;;;9.20;97.10;;;;;;5073104;28;20103;-55
2023/12/21 08:55:11;;;;;;;9.93;2.95;;;9.20;97.10;;;;;;5073836;28;20036;-56
2023/12/21 08:57:40;;;;;;;11.02;3.22;;;9.20;97.10;;;;;;5073639;28;20522;-56
2023/12/21 09:00:12;;;;;;;14.70;3.67;;;9.20;97.10;;;;;;5073253;28;20032;-57
2023/12/21 09:02:40;;;;;;;21.73;4.45;;;9.20;97.10;;;;;;5073925;28;20349;-52
2023/12/21 09:05:07;;;;;;;12.55;3.50;;;9.20;97.20;;;;;;5073711;28;20036;-55
2023/12/21 09:07:36;;;;;;;14.10;3.15;;;9.20;97.20;;;;;;5073774;28;20090;-55
2023/12/21 09:10:04;;;;;;;23.45;3.83;;;9.20;97.20;;;;;;5073374;28;20084;-53
2023/12/21 09:12:31;;;;;;;14.85;3.97;;;9.20;97.20;;;;;;5073699;28;20036;-56
2023/12/21 09:15:06;;;;;;;12.80;3.65;;;9.20;97.20;;;;;;5073716;28;20039;-55
2023/12/21 09:17:33;;;;;;;14.02;3.95;;;9.30;97.30;;;;;;5073760;28;20021;-55
2023/12/21 09:20:00;;;;;;;19.90;4.07;;;9.30;97.30;;;;;;5073747;28;20530;-52
2023/12/21 09:22:27;;;;;;;20.83;4.90;;;9.30;97.30;;;;;;5073917;28;20017;-54
2023/12/21 09:24:54;;;;;;;26.85;5.45;;;9.30;97.30;;;;;;5108588;28;20031;-52
2023/12/21 09:27:32;;;;;;;20.33;5.47;;;9.30;97.30;;;;;;5114217;28;20437;-51
2023/12/21 09:30:13;;;;;;;22.77;3.63;;;9.40;97.30;;;;;;5113925;28;20517;-57
2023/12/21 09:32:45;;;;;;;22.70;4.35;;;9.40;97.20;;;;;;5080615;28;20040;-51
2023/12/21 09:35:18;;;;;;;22.85;3.97;;;9.40;97.30;;;;;;5072991;28;20147;-58
2023/12/21 09:38:31;;;;;;;24.50;5.70;;;9.40;97.30;;;;;;5072907;28;20028;-54
2023/12/21 09:41:10;;;;;;;;;;;;;;;;;;;;;
2023/12/21 09:43:41;;;;;;;17.75;4.45;;;9.40;97.30;;;;;;5071077;28;20334;-54
2023/12/21 09:46:17;;;;;;;18.25;4.45;;;9.40;97.30;;;;;;5073471;28;20040;-56
2023/12/21 09:48:47;;;;;;;18.42;3.97;;;9.40;97.30;;;;;;5072949;28;20035;-52
2023/12/21 09:51:18;;;;;;;17.02;5.65;;;9.40;97.30;;;;;;5073248;28;20033;-56
2023/12/21 09:53:49;;;;;;;22.38;5.25;;;9.40;97.30;;;;;;5073394;28;20115;-53
2023/12/21 09:56:35;;;;;;;19.25;4.72;;;9.40;97.30;;;;;;5072972;28;20029;-53
2023/12/21 09:59:04;;;;;;;26.92;6.22;;;9.40;97.20;;;;;;5072927;28;20071;-56
2023/12/21 10:02:51;;;;;;;19.27;4.22;;;9.50;97.20;;;;;;5073494;28;20028;-57
2023/12/21 10:05:22;;;;;;;28.48;5.22;;;9.50;97.20;;;;;;5061841;28;20029;-54
2023/12/21 10:07:53;;;;;;;;;;;9.50;97.20;;;;;;5073231;28;20024;-52
2023/12/21 10:10:38;;;;;;;23.02;4.63;;;9.50;97.30;;;;;;5072575;28;19963;-55
2023/12/21 10:13:05;;;;;;;19.90;3.55;;;9.60;97.30;;;;;;5073247;28;20024;-54
2023/12/21 10:15:33;;;;;;;17.77;4.28;;;9.60;97.20;;;;;;5055163;28;20032;-56
2023/12/21 10:18:01;;;;;;;20.67;3.88;;;9.70;97.10;;;;;;5072606;28;20107;-50
2023/12/21 10:20:30;;;;;;;16.75;3.70;;;9.70;97.10;;;;;;5072698;28;20047;-51
2023/12/21 10:22:56;;;;;;;17.27;4.38;;;9.70;97.10;;;;;;5074663;28;20510;-50
2023/12/21 10:25:27;;;;;;;17.70;3.75;;;9.70;96.90;;;;;;5092747;28;20032;-50
2023/12/21 10:27:59;;;;;;;17.83;3.72;;;9.80;96.80;;;;;;5073326;28;20033;-51
2023/12/21 10:30:29;;;;;;;16.60;3.90;;;9.80;96.80;;;;;;5072997;28;20107;-59
2023/12/21 10:32:59;;;;;;;13.88;3.05;;;9.70;96.70;;;;;;5072894;28;20033;-57
2023/12/21 10:35:26;;;;;;;23.20;4.53;;;9.70;96.70;;;;;;5073170;28;20513;-59
2023/12/21 10:37:59;;;;;;;23.33;5.88;;;9.70;96.80;;;;;;5073088;28;20051;-57
2023/12/21 10:40:29;;;;;;;31.10;6.18;;;9.70;96.80;;;;;;5072343;28;20021;-59
2023/12/21 10:42:56;;;;;;;33.40;7.78;;;9.70;96.80;;;;;;5072880;28;20529;-52
2023/12/21 10:45:22;;;;;;;30.63;6.85;;;9.70;96.80;;;;;;5072603;28;20041;-50
2023/12/21 10:47:53;;;;;;;29.67;6.53;;;9.70;96.70;;;;;;5073014;28;20024;-49
2023/12/21 10:50:22;;;;;;;35.55;7.63;;;9.70;96.60;;;;;;5072561;28;20503;-52
2023/12/21 10:52:51;;;;;;;31.42;6.50;;;9.80;96.30;;;;;;5072690;28;20063;-49
2023/12/21 10:55:22;;;;;;;39.90;7.83;;;9.90;96.00;;;;;;5072502;28;20060;-47
2023/12/21 10:57:51;;;;;;;28.08;6.30;;;9.90;95.80;;;;;;5072751;28;20025;-47
2023/12/21 11:00:21;;;;;;;35.13;7.25;;;9.90;95.80;;;;;;5072136;28;20025;-46
2023/12/21 11:02:54;;;;;;;40.42;8.50;;;9.90;95.70;;;;;;5072075;28;20033;-47
2023/12/21 11:05:26;;;;;;;27.15;6.40;;;10.00;95.50;;;;;;5054665;28;20029;-46
2023/12/21 11:07:54;;;;;;;24.23;7.03;;;10.00;95.30;;;;;;5072161;28;20466;-47
2023/12/21 11:10:25;;;;;;;39.53;8.65;;;10.10;95.20;;;;;;5072619;28;20048;-49
2023/12/21 11:12:52;;;;;;;35.65;7.60;;;10.30;95.10;;;;;;5072272;28;20077;-46
2023/12/21 11:15:23;;;;;;;37.28;9.10;;;10.30;94.90;;;;;;5072271;28;20078;-45
2023/12/21 11:17:55;;;;;;;27.52;7.75;;;10.30;94.50;;;;;;5075783;28;20020;-46
2023/12/21 11:20:28;;;;;;;29.58;6.53;;;10.40;94.30;;;;;;5076234;28;20405;-44
2023/12/21 11:22:55;;;;;;;36.10;7.57;;;10.40;93.90;;;;;;5076831;28;20450;-48
2023/12/21 11:25:22;;;;;;;29.92;7.80;;;10.40;93.80;;;;;;5095754;28;20111;-55
2023/12/21 11:27:54;;;;;;;38.35;10.43;;;10.20;94.10;;;;;;5078249;28;20048;-53
2023/12/21 11:30:27;;;;;;;33.63;7.55;;;10.10;94.60;;;;;;5096069;28;20532;-51
2023/12/21 11:33:04;;;;;;;29.25;6.90;;;10.20;94.70;;;;;;5095926;28;20032;-60
2023/12/21 11:35:31;;;;;;;35.50;7.45;;;10.10;94.90;;;;;;5077124;28;20040;-56
2023/12/21 11:38:05;;;;;;;33.20;7.53;;;9.50;92.50;;;;;;5074629;28;20028;-56
2023/12/21 11:40:34;;;;;;;32.22;7.10;;;8.60;92.30;;;;;;5093759;28;20098;-51
2023/12/21 11:43:02;;;;;;;27.35;6.95;;;8.10;92.90;;;;;;5096133;28;20030;-56
2023/12/21 11:45:30;;;;;;;34.38;6.85;;;7.90;93.60;;;;;;5093231;28;20036;-56
2023/12/21 11:48:02;;;;;;;29.42;6.10;;;7.70;93.90;;;;;;5075516;28;20021;-53
2023/12/21 11:50:33;;;;;;;33.45;7.13;;;7.70;94.20;;;;;;5075349;28;20446;-53
2023/12/21 11:53:13;;;;;;;33.70;7.53;;;7.70;94.30;;;;;;5075440;28;20564;-55
2023/12/21 11:55:43;;;;;;;29.05;5.88;;;7.70;94.10;;;;;;5075931;28;20040;-59
2023/12/21 11:58:28;;;;;;;18.25;5.82;;;7.70;93.90;;;;;;5075094;28;20071;-56
2023/12/21 12:00:58;;;;;;;31.80;8.50;;;7.70;93.60;;;;;;5074698;28;20450;-51
2023/12/21 12:03:27;;;;;;;28.17;6.43;;;7.70;93.70;;;;;;5061390;28;20342;-52
2023/12/21 12:06:06;;;;;;;32.15;5.30;;;7.70;93.50;;;;;;5075026;28;20056;-55
2023/12/21 12:08:33;;;;;;;24.05;4.63;;;7.70;93.30;;;;;;5075712;28;20032;-52
2023/12/21 12:11:00;;;;;;;30.08;5.18;;;7.70;93.10;;;;;;5074851;28;20536;-58
2023/12/21 12:13:30;;;;;;;21.25;4.90;;;7.70;92.80;;;;;;5074930;28;20112;-56
2023/12/21 12:15:57;;;;;;;16.58;3.95;;;7.70;92.60;;;;;;5074905;28;20096;-59
2023/12/21 12:18:23;;;;;;;23.42;4.88;;;7.60;91.40;;;;;;5074505;28;20029;-55
2023/12/21 12:20:51;;;;;;;15.00;3.92;;;7.60;91.50;;;;;;5074520;28;20460;-50
2023/12/21 12:23:18;;;;;;;25.17;4.32;;;7.60;91.10;;;;;;5079062;28;20028;-50
2023/12/21 12:25:46;;;;;;;29.25;4.43;;;7.60;90.70;;;;;;5084588;28;20060;-48
2023/12/21 12:28:17;;;;;;;20.70;3.53;;;7.70;90.90;;;;;;5074783;28;20032;-51
2023/12/21 12:30:44;;;;;;;13.00;3.85;;;7.70;91.00;;;;;;5074740;28;20119;-48
2023/12/21 12:33:12;;;;;;;24.15;5.82;;;7.70;91.20;;;;;;5074448;28;20119;-48
2023/12/21 12:35:48;;;;;;;17.52;3.90;;;7.70;91.30;;;;;;5074815;28;20040;-49
2023/12/21 12:38:16;;;;;;;17.85;5.75;;;7.70;91.10;;;;;;5074395;28;20513;-47
2023/12/21 12:40:47;;;;;;;27.80;5.50;;;7.80;90.90;;;;;;5074943;28;20036;-46
2023/12/21 12:43:16;;;;;;;29.48;6.15;;;7.90;90.70;;;;;;5045198;28;20026;-48
2023/12/21 12:45:44;;;;;;;21.13;4.78;;;7.80;90.90;;;;;;5094906;28;20027;-47
2023/12/21 12:48:10;;;;;;;36.40;5.22;;;7.90;90.90;;;;;;5094851;28;20032;-46
2023/12/21 12:50:37;;;;;;;16.80;4.15;;;7.90;90.70;;;;;;5094414;28;20052;-45
2023/12/21 12:53:07;;;;;;;17.45;4.97;;;7.90;90.60;;;;;;5085960;28;20036;-46
2023/12/21 12:55:35;;;;;;;26.27;5.85;;;7.90;90.60;;;;;;5057031;28;20056;-45
2023/12/21 12:58:04;;;;;;;40.72;6.03;;;8.00;90.90;;;;;;5074487;28;20032;-44
2023/12/21 13:00:32;;;;;;;28.55;7.78;;;8.10;91.20;;;;;;5056803;28;20021;-46